Time;durP1;ratioP1;P1;durP2;ratioP2;P2;SDS_P1;SDS_P2;PMS_P1;PMS_P2;Temp;Humidity;BMP_temperature;BMP_pressure;BME280_temperature;BME280_humidity;BME280_pressure;Samples;Min_cycle;Max_cycle;Signal;HPM_P1;HPM_P2
2022/04/08 00:02:13;;;;;;;6.68;2.20;;;13.80;50.70;;;;;;7376957;19;20030;-87
2022/04/08 00:04:42;;;;;;;8.77;1.35;;;13.80;50.50;;;;;;7383909;19;20397;-87
2022/04/08 00:07:11;;;;;;;9.93;2.17;;;13.90;50.40;;;;;;7379283;19;20018;-87
2022/04/08 00:09:39;;;;;;;7.75;1.40;;;13.90;50.40;;;;;;7387093;19;20019;-86
2022/04/08 00:12:10;;;;;;;9.65;2.10;;;13.90;50.40;;;;;;7397890;19;20090;-87
2022/04/08 00:14:41;;;;;;;10.90;1.45;;;13.90;50.70;;;;;;7373678;19;20014;-87
2022/04/08 00:17:10;;;;;;;12.45;1.77;;;13.90;50.50;;;;;;7377748;19;20017;-87
2022/04/08 00:19:39;;;;;;;10.15;1.65;;;14.00;50.40;;;;;;7375889;19;20010;-87
2022/04/08 00:22:08;;;;;;;8.50;1.80;;;13.90;50.10;;;;;;7376152;19;20456;-87
2022/04/08 00:24:37;;;;;;;9.57;1.52;;;14.00;50.40;;;;;;7399106;19;20082;-87
2022/04/08 00:27:05;;;;;;;11.13;1.35;;;14.00;50.20;;;;;;7381324;19;20023;-87
2022/04/08 00:29:34;;;;;;;8.40;1.60;;;13.90;50.30;;;;;;7401284;19;20034;-87
2022/04/08 00:32:06;;;;;;;13.55;1.95;;;13.80;50.60;;;;;;7406894;19;20023;-88
2022/04/08 00:34:35;;;;;;;7.03;1.33;;;13.80;50.70;;;;;;7396099;19;20442;-87
2022/04/08 00:37:03;;;;;;;8.00;1.52;;;13.90;50.90;;;;;;7384431;19;20035;-88
2022/04/08 00:39:32;;;;;;;6.45;1.40;;;13.90;50.80;;;;;;7404354;19;20082;-87
2022/04/08 00:42:02;;;;;;;6.40;1.65;;;13.90;51.40;;;;;;7378789;19;20019;-87
2022/04/08 00:44:32;;;;;;;9.70;1.63;;;13.90;50.80;;;;;;7376567;19;20089;-86
2022/04/08 00:47:00;;;;;;;11.38;1.63;;;13.90;50.90;;;;;;7374044;19;20018;-87
2022/04/08 00:49:32;;;;;;;9.50;1.85;;;13.90;51.60;;;;;;7376752;19;20036;-86
2022/04/08 00:52:03;;;;;;;8.82;1.60;;;13.90;51.10;;;;;;7375901;19;20097;-87
2022/04/08 00:54:33;;;;;;;7.47;1.42;;;13.90;51.10;;;;;;7395480;19;20058;-86
2022/04/08 00:57:02;;;;;;;7.65;1.48;;;13.90;51.30;;;;;;7375387;19;20085;-87
2022/04/08 00:59:32;;;;;;;7.28;1.27;;;13.90;51.40;;;;;;7382603;19;20124;-87
2022/04/08 01:02:00;;;;;;;10.07;1.70;;;13.90;51.20;;;;;;7381112;19;20014;-87
2022/04/08 01:04:32;;;;;;;9.18;1.83;;;14.00;52.00;;;;;;7376261;19;20040;-87
2022/04/08 01:07:01;;;;;;;13.95;2.15;;;13.90;51.30;;;;;;7376339;19;20003;-87
2022/04/08 01:09:30;;;;;;;8.65;1.63;;;13.90;51.40;;;;;;7395676;19;20031;-87
2022/04/08 01:11:58;;;;;;;10.32;1.70;;;14.00;51.50;;;;;;7372314;19;20126;-88
2022/04/08 01:14:27;;;;;;;9.27;1.73;;;14.00;51.60;;;;;;7373790;19;20035;-87
2022/04/08 01:16:56;;;;;;;10.13;1.70;;;14.00;51.80;;;;;;7374956;19;20018;-88
2022/04/08 01:19:25;;;;;;;14.07;2.25;;;14.00;51.90;;;;;;7373253;19;20106;-87
2022/04/08 01:21:56;;;;;;;6.07;1.95;;;14.00;51.80;;;;;;7374558;19;20022;-87
2022/04/08 01:24:26;;;;;;;12.02;1.70;;;14.00;51.80;;;;;;7395831;19;20014;-88
2022/04/08 01:26:57;;;;;;;5.78;1.50;;;14.10;51.90;;;;;;7385531;19;20031;-87
2022/04/08 01:29:26;;;;;;;;;;;14.10;52.00;;;;;;7387736;19;20110;-87
2022/04/08 01:31:54;;;;;;;11.57;1.65;;;14.20;51.90;;;;;;7378879;19;19990;-87
2022/04/08 01:34:23;;;;;;;6.03;1.48;;;14.10;51.50;;;;;;7380340;19;20016;-87
2022/04/08 01:36:52;;;;;;;5.95;1.35;;;14.10;51.60;;;;;;7381265;19;20462;-87
2022/04/08 01:39:20;;;;;;;11.18;1.60;;;14.10;51.80;;;;;;7403163;19;20086;-87
2022/04/08 01:41:49;;;;;;;7.18;1.40;;;14.10;51.90;;;;;;7379740;19;20094;-87
2022/04/08 01:44:20;;;;;;;6.70;1.45;;;14.10;52.00;;;;;;7380723;19;20078;-87
2022/04/08 01:46:49;;;;;;;11.75;1.65;;;14.00;52.20;;;;;;7379471;19;20106;-87
2022/04/08 01:49:18;;;;;;;9.32;1.70;;;14.10;52.10;;;;;;7380642;19;20039;-87
2022/04/08 01:51:46;;;;;;;15.77;2.10;;;14.10;52.10;;;;;;7377219;19;20070;-87
2022/04/08 01:54:15;;;;;;;11.18;1.60;;;14.10;52.10;;;;;;7408975;19;20059;-87
2022/04/08 01:56:44;;;;;;;7.45;1.48;;;14.00;52.20;;;;;;7386071;19;20014;-87
2022/04/08 01:59:13;;;;;;;12.45;1.90;;;14.10;52.40;;;;;;7380465;19;20014;-87
2022/04/08 02:01:44;;;;;;;13.82;1.90;;;14.10;52.40;;;;;;7381308;19;20439;-87
2022/04/08 02:04:13;;;;;;;10.88;1.90;;;14.10;52.30;;;;;;7381270;19;20029;-88
2022/04/08 02:06:42;;;;;;;7.68;1.80;;;14.00;52.40;;;;;;7376626;19;20019;-86
2022/04/08 02:09:12;;;;;;;11.73;1.60;;;14.00;52.50;;;;;;7398801;19;20010;-87
2022/04/08 02:11:40;;;;;;;9.05;1.80;;;14.00;52.70;;;;;;7379222;19;20117;-87
2022/04/08 02:14:09;;;;;;;11.30;1.70;;;14.00;52.90;;;;;;7380698;19;20023;-88
2022/04/08 02:16:38;;;;;;;12.55;2.15;;;14.00;52.80;;;;;;7379846;19;20018;-87
2022/04/08 02:19:10;;;;;;;7.93;1.60;;;14.00;52.90;;;;;;7378803;19;20090;-86
2022/04/08 02:21:39;;;;;;;10.27;1.83;;;14.00;53.00;;;;;;7405149;19;20442;-87
2022/04/08 02:24:09;;;;;;;8.98;2.08;;;13.90;53.20;;;;;;7388816;19;20018;-87
2022/04/08 02:26:38;;;;;;;7.15;1.17;;;13.90;53.30;;;;;;7385927;19;20077;-88
2022/04/08 02:29:08;;;;;;;15.43;1.80;;;13.90;53.50;;;;;;7383282;19;20022;-87
2022/04/08 02:31:37;;;;;;;11.73;1.75;;;13.80;53.50;;;;;;7379915;19;20506;-87
2022/04/08 02:34:05;;;;;;;8.45;1.67;;;13.80;54.00;;;;;;7381491;19;20014;-87
2022/04/08 02:36:37;;;;;;;16.52;2.67;;;13.80;53.70;;;;;;7400892;19;20023;-87
2022/04/08 02:39:05;;;;;;;18.10;2.08;;;13.80;53.90;;;;;;7380980;19;20094;-87
2022/04/08 02:41:34;;;;;;;7.70;1.75;;;13.80;54.10;;;;;;7378448;19;20018;-87
2022/04/08 02:44:03;;;;;;;12.45;1.70;;;13.80;54.10;;;;;;7378859;19;20026;-87
2022/04/08 02:46:32;;;;;;;7.72;1.70;;;13.80;54.40;;;;;;7378393;19;20536;-87
2022/04/08 02:49:00;;;;;;;14.07;2.00;;;13.80;54.30;;;;;;7384604;19;20124;-86
2022/04/08 02:51:30;;;;;;;10.77;1.88;;;13.80;54.40;;;;;;7407280;19;20018;-88
2022/04/08 02:54:01;;;;;;;19.15;2.95;;;13.80;54.50;;;;;;7379383;19;20010;-87
2022/04/08 02:56:30;;;;;;;;;;;13.90;54.80;;;;;;7379773;19;20018;-87
2022/04/08 02:59:00;;;;;;;10.88;1.77;;;14.00;54.80;;;;;;7379199;19;19946;-87
2022/04/08 03:01:29;;;;;;;10.82;1.90;;;14.00;54.80;;;;;;7379430;19;20014;-86
2022/04/08 03:03:58;;;;;;;13.52;2.10;;;14.00;54.90;;;;;;7381717;19;20102;-87
2022/04/08 03:06:26;;;;;;;14.88;2.13;;;14.00;55.10;;;;;;7401978;19;20015;-87
2022/04/08 03:08:55;;;;;;;15.25;2.50;;;13.90;55.30;;;;;;7378556;19;20090;-87
2022/04/08 03:11:26;;;;;;;14.50;2.28;;;13.90;55.40;;;;;;7378775;19;20340;-86
2022/04/08 03:13:59;;;;;;;10.80;2.65;;;13.90;55.70;;;;;;7380628;19;20525;-87
2022/04/08 03:16:27;;;;;;;19.33;3.03;;;13.90;56.10;;;;;;7389782;19;20018;-87
2022/04/08 03:18:56;;;;;;;16.17;2.63;;;13.90;56.50;;;;;;7402040;19;20018;-87
2022/04/08 03:21:25;;;;;;;13.80;2.47;;;13.80;57.00;;;;;;7421096;19;20014;-86
2022/04/08 03:23:54;;;;;;;19.00;2.47;;;13.70;57.40;;;;;;7397088;19;20038;-86
2022/04/08 03:26:22;;;;;;;19.55;2.78;;;13.70;58.60;;;;;;7395824;19;20039;-86
2022/04/08 03:28:54;;;;;;;10.75;2.25;;;13.80;59.30;;;;;;7388045;19;20048;-86
2022/04/08 03:31:23;;;;;;;15.95;2.80;;;13.70;60.00;;;;;;7383907;19;20018;-86
2022/04/08 03:33:52;;;;;;;20.42;2.75;;;13.80;60.00;;;;;;7383575;19;20014;-86
2022/04/08 03:36:20;;;;;;;15.45;2.90;;;13.70;59.80;;;;;;7402213;19;20059;-86
2022/04/08 03:38:49;;;;;;;17.67;2.33;;;13.70;60.10;;;;;;7378335;19;20063;-87
2022/04/08 03:41:18;;;;;;;14.60;2.28;;;13.80;60.70;;;;;;7384378;19;20018;-87
2022/04/08 03:43:47;;;;;;;14.50;3.03;;;13.70;60.10;;;;;;7387025;19;20018;-87
2022/04/08 03:46:18;;;;;;;12.75;3.08;;;13.70;60.60;;;;;;7403590;19;20015;-87
2022/04/08 03:48:47;;;;;;;17.45;3.17;;;13.70;60.70;;;;;;7400285;19;20026;-86
2022/04/08 03:51:15;;;;;;;14.25;2.22;;;13.80;60.50;;;;;;7425688;19;20071;-87
2022/04/08 03:53:44;;;;;;;19.38;2.95;;;13.70;59.70;;;;;;7404542;19;20014;-87
2022/04/08 03:56:13;;;;;;;10.82;2.75;;;13.70;60.00;;;;;;7404674;19;20018;-87
2022/04/08 03:58:41;;;;;;;12.88;2.45;;;13.70;60.60;;;;;;7401572;19;20031;-87
2022/04/08 04:01:10;;;;;;;13.23;2.83;;;13.70;60.10;;;;;;7382233;19;20566;-87
2022/04/08 04:03:41;;;;;;;17.50;3.72;;;13.60;59.60;;;;;;7401346;19;20088;-87
2022/04/08 04:06:10;;;;;;;13.65;3.20;;;13.60;60.70;;;;;;7380178;19;20050;-88
2022/04/08 04:08:39;;;;;;;8.30;2.53;;;13.60;61.30;;;;;;7377865;19;20465;-88
2022/04/08 04:11:07;;;;;;;14.88;2.38;;;13.70;61.40;;;;;;7384502;19;20014;-88
2022/04/08 04:13:36;;;;;;;14.77;2.10;;;13.70;60.80;;;;;;7384958;19;20039;-89
2022/04/08 04:16:05;;;;;;;12.35;2.30;;;13.70;60.00;;;;;;7381422;19;20161;-89
2022/04/08 04:18:34;;;;;;;13.75;2.55;;;13.70;60.20;;;;;;7406904;19;20019;-88
2022/04/08 04:21:06;;;;;;;10.88;2.05;;;13.70;60.90;;;;;;7406437;19;20047;-87
2022/04/08 04:23:35;;;;;;;16.88;2.90;;;13.70;61.40;;;;;;7404193;19;20042;-88
2022/04/08 04:26:06;;;;;;;12.18;2.42;;;13.70;61.70;;;;;;7386826;19;20053;-89
2022/04/08 04:28:35;;;;;;;9.70;1.77;;;13.70;61.60;;;;;;7385581;19;20042;-88
2022/04/08 04:31:04;;;;;;;11.38;2.05;;;13.70;61.60;;;;;;7380863;19;20038;-88
2022/04/08 04:33:33;;;;;;;8.15;2.28;;;13.80;61.90;;;;;;7399903;19;20025;-87
2022/04/08 04:36:04;;;;;;;7.07;1.80;;;13.80;62.30;;;;;;7378894;19;20006;-88
2022/04/08 04:38:33;;;;;;;9.68;1.95;;;13.80;61.30;;;;;;7381966;19;20019;-89
2022/04/08 04:41:02;;;;;;;10.70;2.10;;;13.80;60.80;;;;;;7385732;19;20018;-88
2022/04/08 04:43:31;;;;;;;10.02;1.88;;;13.70;61.40;;;;;;7385533;19;20062;-88
2022/04/08 04:45:59;;;;;;;15.90;2.10;;;13.70;62.30;;;;;;7385880;19;20035;-88
2022/04/08 04:48:28;;;;;;;10.65;1.98;;;13.70;62.40;;;;;;7398956;19;20090;-89
2022/04/08 04:50:57;;;;;;;8.55;1.88;;;13.70;62.80;;;;;;7374881;19;20078;-88
2022/04/08 04:53:28;;;;;;;8.90;1.85;;;13.70;63.20;;;;;;7376319;19;20147;-87
2022/04/08 04:55:57;;;;;;;11.05;1.98;;;13.60;63.10;;;;;;7377096;19;20025;-88
2022/04/08 04:58:25;;;;;;;10.20;1.98;;;13.60;63.50;;;;;;7377016;19;20022;-87
2022/04/08 05:00:54;;;;;;;11.45;1.65;;;13.60;63.50;;;;;;7375477;19;20023;-86
2022/04/08 05:03:23;;;;;;;10.07;1.90;;;13.50;64.10;;;;;;7392383;19;20025;-85
2022/04/08 05:05:53;;;;;;;9.77;1.80;;;13.50;64.10;;;;;;7375844;19;20106;-87
2022/04/08 05:08:22;;;;;;;8.10;1.52;;;13.50;64.20;;;;;;7381390;19;20015;-86
2022/04/08 05:10:55;;;;;;;13.80;2.28;;;13.40;64.90;;;;;;7376879;19;20082;-88
2022/04/08 05:13:23;;;;;;;12.02;2.30;;;13.40;66.10;;;;;;7375302;19;20529;-88
2022/04/08 05:15:52;;;;;;;9.98;2.55;;;13.40;65.60;;;;;;7375527;19;20019;-88
2022/04/08 05:18:21;;;;;;;7.68;2.20;;;13.40;65.80;;;;;;7397940;19;20010;-88
2022/04/08 05:20:52;;;;;;;14.75;2.00;;;13.40;65.20;;;;;;7374540;19;20018;-88
2022/04/08 05:23:20;;;;;;;10.85;2.35;;;13.40;65.50;;;;;;7374195;19;20036;-87
2022/04/08 05:25:49;;;;;;;5.75;1.77;;;13.30;66.50;;;;;;7373800;19;20018;-87
2022/04/08 05:28:21;;;;;;;13.52;2.15;;;13.40;65.90;;;;;;7374789;19;20015;-88
2022/04/08 05:30:49;;;;;;;9.55;1.73;;;13.40;65.90;;;;;;7377445;19;20420;-87
2022/04/08 05:33:18;;;;;;;10.48;2.33;;;13.40;66.30;;;;;;7399154;19;20427;-88
2022/04/08 05:35:47;;;;;;;9.98;2.30;;;13.40;66.20;;;;;;7383316;19;20028;-87
2022/04/08 05:38:16;;;;;;;9.77;2.03;;;13.40;66.30;;;;;;7378549;19;20019;-87
2022/04/08 05:40:44;;;;;;;7.13;2.50;;;13.40;66.60;;;;;;7376156;19;20010;-87
2022/04/08 05:43:13;;;;;;;13.27;2.72;;;13.40;67.60;;;;;;7376390;19;20035;-87
2022/04/08 05:45:45;;;;;;;11.77;2.83;;;13.50;67.10;;;;;;7375026;19;20026;-86
2022/04/08 05:48:13;;;;;;;13.98;3.63;;;13.40;67.00;;;;;;7396305;19;20043;-88
2022/04/08 05:50:42;;;;;;;13.15;3.50;;;13.50;66.70;;;;;;7374656;19;20086;-87
2022/04/08 05:53:11;;;;;;;10.93;3.25;;;13.40;66.40;;;;;;7374584;19;20089;-87
2022/04/08 05:55:39;;;;;;;10.07;3.30;;;13.40;66.70;;;;;;7378707;19;20078;-87
2022/04/08 05:58:08;;;;;;;10.05;2.92;;;13.40;67.00;;;;;;7378747;19;20072;-88
2022/04/08 06:00:37;;;;;;;10.15;2.90;;;13.40;67.00;;;;;;7397152;19;20018;-88
2022/04/08 06:03:08;;;;;;;14.93;3.28;;;13.30;67.20;;;;;;7381544;19;20011;-90
2022/04/08 06:05:40;;;;;;;12.77;2.65;;;13.30;67.30;;;;;;7386542;19;20015;-86
2022/04/08 06:08:10;;;;;;;13.88;2.80;;;13.30;68.00;;;;;;7373830;19;20126;-83
2022/04/08 06:10:39;;;;;;;11.02;3.00;;;13.30;68.00;;;;;;7373153;19;20325;-82
2022/04/08 06:13:08;;;;;;;15.68;3.70;;;13.30;68.20;;;;;;7378960;19;20018;-81
2022/04/08 06:15:37;;;;;;;17.85;3.55;;;13.30;68.10;;;;;;7403130;19;20010;-80
2022/04/08 06:18:13;;;;;;;13.60;3.22;;;13.30;68.30;;;;;;7378296;19;20013;-83
2022/04/08 06:20:41;;;;;;;17.42;3.25;;;13.30;68.10;;;;;;7380432;19;20348;-84
2022/04/08 06:23:10;;;;;;;15.65;2.88;;;13.30;68.30;;;;;;7382931;19;20031;-82
2022/04/08 06:25:39;;;;;;;17.58;3.10;;;13.30;68.60;;;;;;7381265;19;20018;-81
2022/04/08 06:28:09;;;;;;;9.90;3.03;;;13.30;68.60;;;;;;7377819;19;20038;-81
2022/04/08 06:30:40;;;;;;;15.88;3.17;;;13.20;69.40;;;;;;7402927;19;20035;-82
2022/04/08 06:33:12;;;;;;;12.07;3.28;;;13.20;69.90;;;;;;7386683;19;20010;-82
2022/04/08 06:35:40;;;;;;;;;;;13.20;70.50;;;;;;7398288;19;20014;-83
2022/04/08 06:38:10;;;;;;;14.65;4.40;;;13.30;70.80;;;;;;7395110;19;19931;-83
2022/04/08 06:40:39;;;;;;;14.38;4.32;;;13.30;71.90;;;;;;7391444;19;20019;-83
2022/04/08 06:43:08;;;;;;;15.05;4.65;;;13.20;71.20;;;;;;7396224;19;20019;-84
2022/04/08 06:45:38;;;;;;;18.25;4.20;;;13.20;71.20;;;;;;7420902;19;20014;-84
2022/04/08 06:48:11;;;;;;;12.20;2.83;;;13.20;71.50;;;;;;7382169;19;20082;-83
2022/04/08 06:50:45;;;;;;;12.73;3.50;;;13.20;71.30;;;;;;7384921;19;20011;-83
2022/04/08 06:53:14;;;;;;;14.27;3.45;;;13.20;71.30;;;;;;7338285;19;20018;-80
2022/04/08 06:55:43;;;;;;;13.23;2.92;;;13.20;71.50;;;;;;7381521;19;20007;-80
2022/04/08 06:58:12;;;;;;;16.38;3.20;;;13.20;71.80;;;;;;7379894;19;20028;-81
2022/04/08 07:00:41;;;;;;;14.65;3.03;;;13.20;71.50;;;;;;7394698;19;20021;-80
2022/04/08 07:03:09;;;;;;;15.05;3.15;;;13.20;71.80;;;;;;7404161;19;20014;-79
2022/04/08 07:05:38;;;;;;;13.70;3.10;;;13.20;71.70;;;;;;7381132;19;20031;-81
2022/04/08 07:08:09;;;;;;;15.05;3.28;;;13.20;72.20;;;;;;7378076;19;20035;-81
2022/04/08 07:10:38;;;;;;;;;;;13.20;71.80;;;;;;7378342;19;20454;-80
2022/04/08 07:13:07;;;;;;;14.15;3.10;;;13.20;71.40;;;;;;7380766;19;19915;-81
2022/04/08 07:15:36;;;;;;;9.30;3.10;;;13.20;71.50;;;;;;7405473;19;20573;-80
2022/04/08 07:18:07;;;;;;;15.98;3.85;;;13.20;71.90;;;;;;7383099;19;20014;-81
2022/04/08 07:20:36;;;;;;;19.77;5.07;;;13.10;71.50;;;;;;7377675;19;20017;-80
2022/04/08 07:23:05;;;;;;;22.52;7.72;;;13.10;71.20;;;;;;7383103;19;20114;-80
2022/04/08 07:25:38;;;;;;;14.30;5.88;;;13.10;71.30;;;;;;7382189;19;20010;-80
2022/04/08 07:28:07;;;;;;;16.42;6.05;;;13.00;71.30;;;;;;7379826;19;20014;-81
2022/04/08 07:30:36;;;;;;;14.23;4.97;;;13.00;71.30;;;;;;7403396;19;20019;-80
2022/04/08 07:33:05;;;;;;;13.88;4.32;;;13.10;71.80;;;;;;7380303;19;20824;-81
2022/04/08 07:35:34;;;;;;;13.13;3.22;;;13.00;71.80;;;;;;7382677;19;20011;-81
2022/04/08 07:38:03;;;;;;;11.32;3.90;;;13.10;71.80;;;;;;7381673;19;20106;-81
2022/04/08 07:40:32;;;;;;;13.57;4.28;;;13.00;71.80;;;;;;7383130;19;20091;-82
2022/04/08 07:43:03;;;;;;;10.63;3.60;;;13.00;71.70;;;;;;7380218;19;20024;-81
2022/04/08 07:45:32;;;;;;;21.48;5.43;;;13.00;72.20;;;;;;7399460;19;20494;-81
2022/04/08 07:48:01;;;;;;;20.98;4.65;;;13.00;72.10;;;;;;7377854;19;20018;-80
2022/04/08 07:50:32;;;;;;;14.70;5.13;;;12.90;72.00;;;;;;7379628;19;20332;-82
2022/04/08 07:53:01;;;;;;;13.57;4.85;;;13.00;71.80;;;;;;7378941;19;20118;-81
2022/04/08 07:55:30;;;;;;;14.73;4.80;;;13.00;71.80;;;;;;7376470;19;20093;-81
2022/04/08 07:57:58;;;;;;;16.05;4.43;;;13.00;71.80;;;;;;7380021;19;20022;-80
2022/04/08 08:00:31;;;;;;;12.85;3.75;;;13.00;72.20;;;;;;7402794;19;20081;-81
2022/04/08 08:03:00;;;;;;;10.60;4.00;;;12.90;72.00;;;;;;7378678;19;20126;-81
2022/04/08 08:05:32;;;;;;;15.82;4.30;;;12.90;71.90;;;;;;7381921;19;20398;-80
2022/04/08 08:08:01;;;;;;;;;;;12.90;72.20;;;;;;7379691;19;20045;-81
2022/04/08 08:10:32;;;;;;;12.32;3.72;;;13.00;71.90;;;;;;7380241;19;19987;-81
2022/04/08 08:13:02;;;;;;;11.98;3.90;;;12.90;71.70;;;;;;7384370;19;20019;-81
2022/04/08 08:15:36;;;;;;;11.75;4.05;;;12.90;73.30;;;;;;7414388;19;20025;-80
2022/04/08 08:18:07;;;;;;;13.07;4.10;;;12.90;72.50;;;;;;7401872;19;20007;-82
2022/04/08 08:20:37;;;;;;;13.90;4.35;;;12.90;72.30;;;;;;7402724;19;20319;-82
2022/04/08 08:23:06;;;;;;;13.23;3.63;;;13.00;72.50;;;;;;7400599;19;20042;-81
2022/04/08 08:25:35;;;;;;;12.27;3.55;;;12.90;72.00;;;;;;7383115;19;20046;-81
2022/04/08 08:28:04;;;;;;;11.55;3.30;;;12.90;71.70;;;;;;7382182;19;20050;-82
2022/04/08 08:30:38;;;;;;;9.23;3.78;;;12.90;71.90;;;;;;7400911;19;20026;-82
2022/04/08 08:33:07;;;;;;;18.48;6.15;;;12.90;71.70;;;;;;7378247;19;20018;-81
2022/04/08 08:35:36;;;;;;;16.00;5.72;;;12.90;71.80;;;;;;7374718;19;20560;-82
2022/04/08 08:38:06;;;;;;;14.85;4.30;;;12.90;72.10;;;;;;7376914;19;20018;-81
2022/04/08 08:40:36;;;;;;;11.32;3.97;;;12.80;72.00;;;;;;7376673;19;20022;-83
2022/04/08 08:43:05;;;;;;;10.30;3.63;;;12.80;72.70;;;;;;7374880;19;20015;-83
2022/04/08 08:45:37;;;;;;;12.68;4.03;;;12.80;72.80;;;;;;7395211;19;20035;-81
2022/04/08 08:48:06;;;;;;;;;;;12.80;72.70;;;;;;7375748;19;20025;-83
2022/04/08 08:50:36;;;;;;;14.82;5.07;;;12.90;72.80;;;;;;7374353;19;19935;-82
2022/04/08 08:53:04;;;;;;;46.90;24.80;;;12.90;72.50;;;;;;7372977;19;20121;-83
2022/04/08 08:55:33;;;;;;;36.10;16.40;;;12.90;72.80;;;;;;7377282;19;20023;-83
2022/04/08 08:58:02;;;;;;;11.98;3.92;;;12.80;72.10;;;;;;7382405;19;20007;-82
2022/04/08 09:00:31;;;;;;;9.38;3.50;;;12.80;72.20;;;;;;7395769;19;20019;-82
2022/04/08 09:03:02;;;;;;;19.58;3.95;;;12.80;72.70;;;;;;7374727;19;20074;-84
2022/04/08 09:05:31;;;;;;;10.23;3.92;;;12.80;72.70;;;;;;7375614;19;20011;-84
2022/04/08 09:08:01;;;;;;;8.57;3.58;;;12.70;72.70;;;;;;7373009;19;20003;-82
2022/04/08 09:10:32;;;;;;;11.63;3.53;;;12.70;72.70;;;;;;7374307;19;20078;-83
2022/04/08 09:13:02;;;;;;;8.00;3.53;;;12.70;72.50;;;;;;7374665;19;20020;-82
2022/04/08 09:15:33;;;;;;;12.23;3.63;;;12.60;72.20;;;;;;7397428;19;20023;-82
2022/04/08 09:18:13;;;;;;;16.33;3.63;;;12.60;72.20;;;;;;7371548;19;20018;-83
2022/04/08 09:20:42;;;;;;;11.18;3.30;;;12.50;72.00;;;;;;7372476;19;20072;-82
2022/04/08 09:23:13;;;;;;;7.05;2.95;;;12.50;72.50;;;;;;7373102;19;20094;-82
2022/04/08 09:25:42;;;;;;;7.90;3.53;;;12.40;72.90;;;;;;7373151;19;20014;-85
2022/04/08 09:28:12;;;;;;;11.27;3.40;;;12.50;73.50;;;;;;7375891;19;20010;-83
2022/04/08 09:30:41;;;;;;;9.65;4.20;;;12.50;73.30;;;;;;7385830;19;20010;-83
2022/04/08 09:33:19;;;;;;;7.25;3.28;;;12.50;73.30;;;;;;7392872;19;20325;-87
2022/04/08 09:35:48;;;;;;;7.75;2.70;;;12.40;72.70;;;;;;7365220;19;20010;-84
2022/04/08 09:38:21;;;;;;;7.78;2.80;;;12.40;71.50;;;;;;7372266;19;20010;-85
2022/04/08 09:40:51;;;;;;;12.40;3.17;;;12.30;72.50;;;;;;7373477;19;20438;-84
2022/04/08 09:43:20;;;;;;;8.90;2.88;;;12.30;73.30;;;;;;7377360;19;20023;-84
2022/04/08 09:45:49;;;;;;;12.48;3.95;;;12.30;74.00;;;;;;7378206;19;20466;-84
2022/04/08 09:48:26;;;;;;;5.43;2.40;;;12.30;73.90;;;;;;7400687;19;20064;-87
2022/04/08 09:50:56;;;;;;;13.13;2.40;;;12.30;74.10;;;;;;7379201;19;20082;-84
2022/04/08 09:57:07;;;;;;;10.35;2.90;;;12.10;74.10;;;;;;7332937;19;20468;-84
2022/04/08 10:00:25;;;;;;;10.55;4.97;;;12.20;75.30;;;;;;7405304;19;20018;-82
2022/04/08 10:02:59;;;;;;;460.13;31.55;;;12.20;76.20;;;;;;7382744;19;20094;-87
2022/04/08 10:05:37;;;;;;;14.57;3.40;;;12.30;75.70;;;;;;7377113;19;20022;-86
2022/04/08 10:08:10;;;;;;;297.63;14.60;;;12.20;74.10;;;;;;7379667;19;20346;-83
2022/04/08 10:10:54;;;;;;;5.78;2.63;;;12.10;74.30;;;;;;7382200;19;20018;-88
2022/04/08 10:13:34;;;;;;;6.20;2.50;;;12.10;75.30;;;;;;7394217;19;20023;-86
2022/04/08 10:16:10;;;;;;;282.40;11.32;;;12.10;75.40;;;;;;7381547;19;20018;-86
2022/04/08 10:18:41;;;;;;;7.72;2.88;;;12.10;76.00;;;;;;7404085;19;20010;-85
2022/04/08 10:21:13;;;;;;;8.80;3.70;;;12.10;74.70;;;;;;7382239;19;20043;-86
2022/04/08 10:23:50;;;;;;;8.30;3.75;;;11.90;73.70;;;;;;7380677;19;20069;-88
2022/04/08 10:26:22;;;;;;;12.95;4.10;;;11.80;75.20;;;;;;7381147;19;20517;-82
2022/04/08 10:28:50;;;;;;;;;;;11.80;75.60;;;;;;7378073;19;20044;-81
2022/04/08 10:31:22;;;;;;;6.38;2.80;;;11.80;74.40;;;;;;7379584;19;19926;-82
2022/04/08 10:33:56;;;;;;;6.65;3.25;;;11.70;74.00;;;;;;7376339;19;20014;-81
2022/04/08 10:36:39;;;;;;;9.15;3.13;;;11.70;74.40;;;;;;7398886;19;20110;-81
2022/04/08 10:39:15;;;;;;;6.65;3.33;;;11.70;75.20;;;;;;7377941;19;20118;-84
2022/04/08 10:41:51;;;;;;;6.50;3.38;;;11.80;77.10;;;;;;7379062;19;20483;-85
2022/04/08 10:44:32;;;;;;;8.02;3.45;;;12.00;76.90;;;;;;7379701;19;20022;-86
2022/04/08 10:47:03;;;;;;;4.70;2.92;;;12.00;76.70;;;;;;7382526;19;20017;-87
2022/04/08 10:49:32;;;;;;;4.27;3.00;;;12.20;76.70;;;;;;7382716;19;20466;-87
2022/04/08 10:52:04;;;;;;;3.55;2.40;;;12.30;77.50;;;;;;7376115;19;20276;-85
2022/04/08 10:54:36;;;;;;;;;;;12.50;78.00;;;;;;7401583;19;20019;-83
2022/04/08 10:57:05;;;;;;;19.88;9.60;;;12.70;78.00;;;;;;7382119;19;19926;-86
2022/04/08 10:59:34;;;;;;;6.93;2.60;;;12.80;77.80;;;;;;7378086;19;20010;-85
2022/04/08 11:02:06;;;;;;;5.80;2.78;;;12.90;76.20;;;;;;7378163;19;20442;-83
2022/04/08 11:04:35;;;;;;;5.47;2.97;;;13.00;76.40;;;;;;7374564;19;20094;-84
2022/04/08 11:07:11;;;;;;;5.18;3.00;;;13.00;74.90;;;;;;7374807;19;20010;-82
2022/04/08 11:09:40;;;;;;;5.88;3.30;;;12.90;73.30;;;;;;7400937;19;20022;-81
2022/04/08 11:12:10;;;;;;;11.63;4.65;;;12.90;75.30;;;;;;7376956;19;20014;-83
2022/04/08 11:14:57;;;;;;;8.15;4.93;;;13.00;76.10;;;;;;7376206;19;20025;-84
2022/04/08 11:17:35;;;;;;;13.10;8.45;;;13.10;76.20;;;;;;7376743;19;20457;-83
2022/04/08 11:20:09;;;;;;;11.02;6.95;;;13.20;76.10;;;;;;7375756;19;20137;-82
2022/04/08 11:22:44;;;;;;;8.70;4.78;;;13.20;75.60;;;;;;7376344;19;20025;-82
2022/04/08 11:25:21;;;;;;;9.30;6.18;;;13.20;75.90;;;;;;7375436;19;20010;-83
2022/04/08 11:28:01;;;;;;;8.77;5.60;;;13.40;76.00;;;;;;7375723;19;20022;-82
2022/04/08 11:30:30;;;;;;;10.95;4.97;;;13.30;76.20;;;;;;7394877;19;20018;-84
2022/04/08 11:32:59;;;;;;;8.57;5.63;;;13.30;76.20;;;;;;7375342;19;20022;-83
2022/04/08 11:35:32;;;;;;;10.25;5.07;;;13.40;76.30;;;;;;7374030;19;20025;-80
2022/04/08 11:38:14;;;;;;;4.80;3.70;;;13.40;74.90;;;;;;7338864;19;20023;-81
2022/04/08 11:40:43;;;;;;;5.90;3.53;;;13.30;74.60;;;;;;7373118;19;20138;-83
2022/04/08 11:43:15;;;;;;;8.52;3.92;;;13.30;74.60;;;;;;7371262;19;20457;-82
2022/04/08 11:45:44;;;;;;;5.30;3.67;;;13.30;74.60;;;;;;7375050;19;20014;-83
2022/04/08 11:48:16;;;;;;;4.82;3.50;;;13.20;74.40;;;;;;7393786;19;20018;-82
2022/04/08 11:51:00;;;;;;;6.47;3.78;;;13.20;74.50;;;;;;7370127;19;20042;-84
2022/04/08 11:53:46;;;;;;;5.38;3.80;;;13.10;74.70;;;;;;7340924;19;20086;-83
2022/04/08 11:56:34;;;;;;;8.27;4.80;;;13.00;75.20;;;;;;7374908;19;20021;-83
2022/04/08 11:59:38;;;;;;;4.65;4.03;;;13.10;76.20;;;;;;7371582;19;20090;-82
2022/04/08 12:06:26;;;;;;;6.50;4.90;;;13.30;77.10;;;;;;7376092;19;20018;-82
2022/04/08 12:16:48;;;;;;;8.43;5.78;;;13.40;76.20;;;;;;7368703;19;20122;-83
2022/04/08 12:19:24;;;;;;;7.43;5.15;;;13.50;76.70;;;;;;7387537;19;20087;-82
2022/04/08 12:21:53;;;;;;;6.07;5.00;;;13.50;76.50;;;;;;7381630;19;20014;-83
2022/04/08 12:24:25;;;;;;;7.57;5.50;;;13.60;77.40;;;;;;7401529;19;20011;-83
2022/04/08 12:26:54;;;;;;;9.95;5.63;;;13.60;76.90;;;;;;7372484;19;20029;-82
2022/04/08 12:29:29;;;;;;;9.73;6.82;;;13.70;76.40;;;;;;7332072;19;20014;-81
2022/04/08 12:32:16;;;;;;;10.95;7.32;;;13.60;76.70;;;;;;7373322;19;20028;-83
2022/04/08 12:34:48;;;;;;;8.18;6.32;;;13.70;77.80;;;;;;7371624;19;20071;-82
2022/04/08 12:37:17;;;;;;;6.68;5.68;;;13.90;78.30;;;;;;7373692;19;20010;-83
2022/04/08 12:40:34;;;;;;;7.22;5.43;;;13.90;78.60;;;;;;7392389;19;20042;-83
2022/04/08 12:43:17;;;;;;;7.53;6.50;;;14.00;77.90;;;;;;7265360;19;2004146;-83
2022/04/08 12:45:46;;;;;;;8.50;5.72;;;14.20;76.80;;;;;;7370685;19;20018;-83
2022/04/08 12:48:19;;;;;;;10.32;6.85;;;14.30;75.90;;;;;;7393425;19;20018;-83
2022/04/08 12:51:07;;;;;;;12.20;6.30;;;14.20;75.80;;;;;;7372106;19;20557;-82
2022/04/08 12:58:27;;;;;;;9.40;7.32;;;13.90;73.80;;;;;;7371242;19;20019;-84
2022/04/08 13:01:50;;;;;;;10.80;8.10;;;13.40;72.90;;;;;;7370529;19;20461;-83
2022/04/08 13:29:22;;;;;;;14.45;8.43;;;11.90;74.70;;;;;;7378307;19;20011;-86
2022/04/08 13:31:51;;;;;;;9.18;7.78;;;11.80;75.60;;;;;;7377434;19;20011;-86
2022/04/08 13:34:20;;;;;;;12.02;7.43;;;11.70;74.20;;;;;;7380823;19;20133;-86
2022/04/08 13:36:49;;;;;;;12.85;7.30;;;11.70;73.70;;;;;;7377710;19;20022;-83
2022/04/08 13:39:19;;;;;;;9.02;7.32;;;11.10;72.20;;;;;;7400058;19;20098;-85
2022/04/08 13:41:50;;;;;;;10.00;7.05;;;10.80;73.70;;;;;;7373262;19;20597;-83
2022/04/08 13:44:21;;;;;;;10.60;6.82;;;10.70;74.70;;;;;;7379390;19;20018;-84
2022/04/08 13:46:52;;;;;;;10.18;5.80;;;10.70;75.40;;;;;;7379546;19;20439;-85
2022/04/08 13:49:21;;;;;;;8.63;6.38;;;10.40;75.10;;;;;;7383612;19;20018;-84